Time;durP1;ratioP1;P1;durP2;ratioP2;P2;SDS_P1;SDS_P2;PMS_P1;PMS_P2;Temp;Humidity;BMP_temperature;BMP_pressure;BME280_temperature;BME280_humidity;BME280_pressure;Samples;Min_cycle;Max_cycle;Signal;HPM_P1;HPM_P2
2024/03/07 00:01:56;;;;;;;14.60;13.17;;;;;;;5.45;100.00;102799.22;7740151;23;20211;-69
2024/03/07 00:05:17;;;;;;;15.20;12.37;;;;;;;5.36;100.00;102802.25;7739152;23;20215;-69
2024/03/07 00:08:38;;;;;;;15.70;14.07;;;;;;;5.38;100.00;102803.91;7745951;23;20554;-69
2024/03/07 00:12:00;;;;;;;13.90;12.20;;;;;;;5.52;100.00;102809.66;7740263;23;20223;-69
2024/03/07 00:18:49;;;;;;;14.23;11.90;;;;;;;5.58;100.00;102801.38;7734180;22;20219;-69
2024/03/07 00:22:12;;;;;;;15.00;13.40;;;;;;;5.65;100.00;102810.06;7741991;22;20276;-68
2024/03/07 00:25:33;;;;;;;16.10;12.33;;;;;;;5.63;100.00;102802.06;7729874;22;20233;-69
2024/03/07 00:28:54;;;;;;;16.23;12.60;;;;;;;5.59;100.00;102805.78;7734416;22;20207;-69
2024/03/07 00:32:18;;;;;;;16.70;12.87;;;;;;;5.72;100.00;102803.53;7687034;22;20211;-69
2024/03/07 00:35:44;;;;;;;12.57;11.27;;;;;;;5.75;100.00;102811.47;7725233;22;20245;-68
2024/03/07 00:39:08;;;;;;;13.10;11.67;;;;;;;5.78;100.00;102802.44;7723662;22;20215;-69
2024/03/07 00:42:29;;;;;;;17.00;11.73;;;;;;;5.72;100.00;102802.66;7735063;22;20484;-69
2024/03/07 00:45:50;;;;;;;11.77;10.50;;;;;;;5.74;100.00;102803.50;7738773;22;20298;-68
2024/03/07 00:49:11;;;;;;;15.37;12.03;;;;;;;5.79;100.00;102805.06;7741361;22;20464;-68
2024/03/07 00:52:33;;;;;;;15.63;11.87;;;;;;;5.78;100.00;102800.63;7739344;22;20215;-69
2024/03/07 00:55:54;;;;;;;19.40;11.33;;;;;;;5.77;100.00;102795.34;7715962;22;20218;-68
2024/03/07 00:59:15;;;;;;;15.90;12.50;;;;;;;5.85;100.00;102798.63;7723880;22;20290;-69
2024/03/07 01:02:36;;;;;;;26.43;10.53;;;;;;;5.76;100.00;102793.59;7735601;22;20215;-68
2024/03/07 01:05:57;;;;;;;14.90;11.20;;;;;;;5.84;100.00;102800.41;7735563;22;20264;-69
2024/03/07 01:09:19;;;;;;;15.40;11.73;;;;;;;5.90;100.00;102792.19;7742538;22;20222;-69
2024/03/07 01:12:40;;;;;;;23.33;14.27;;;;;;;5.96;100.00;102791.06;7728016;22;20591;-68
2024/03/07 01:16:01;;;;;;;13.73;12.20;;;;;;;5.97;100.00;102782.97;7735859;22;20444;-68
2024/03/07 01:19:25;;;;;;;16.40;12.53;;;;;;;5.98;100.00;102783.84;7743696;23;20211;-68
2024/03/07 01:22:46;;;;;;;15.00;11.57;;;;;;;6.02;100.00;102786.34;7738827;23;20294;-68
2024/03/07 01:26:12;;;;;;;13.97;11.57;;;;;;;6.05;100.00;102783.53;7736730;23;20211;-69
2024/03/07 01:29:33;;;;;;;15.90;11.50;;;;;;;6.06;100.00;102776.38;7745041;23;20211;-68
2024/03/07 01:32:54;;;;;;;19.37;12.37;;;;;;;5.99;100.00;102780.22;7732575;23;20211;-68
2024/03/07 01:36:15;;;;;;;17.60;12.23;;;;;;;6.06;100.00;102773.69;7734657;23;20206;-68
2024/03/07 01:39:36;;;;;;;17.77;11.60;;;;;;;5.96;100.00;102770.53;7742566;23;20238;-68
2024/03/07 01:42:58;;;;;;;22.97;11.27;;;;;;;6.00;100.00;102771.25;7737450;23;20302;-68
2024/03/07 01:46:21;;;;;;;15.63;11.87;;;;;;;5.93;100.00;102780.47;7738308;23;20542;-69
2024/03/07 01:49:42;;;;;;;19.50;12.50;;;;;;;5.99;100.00;102770.38;7741960;23;20211;-68
2024/03/07 01:53:03;;;;;;;17.13;13.93;;;;;;;6.05;100.00;102774.66;7756674;22;20310;-68
2024/03/07 01:56:24;;;;;;;13.53;12.07;;;;;;;6.09;100.00;102769.09;7714280;23;20238;-70
2024/03/07 01:59:50;;;;;;;21.53;12.47;;;;;;;6.03;100.00;102773.84;7742198;23;20265;-69
2024/03/07 02:03:11;;;;;;;16.13;14.20;;;;;;;6.05;100.00;102774.66;7740537;23;20215;-68
2024/03/07 02:06:33;;;;;;;19.50;14.60;;;;;;;6.02;100.00;102772.97;7735961;23;20215;-69
2024/03/07 02:10:00;;;;;;;15.07;12.90;;;;;;;6.06;100.00;102768.34;7744124;23;20207;-68
2024/03/07 02:13:21;;;;;;;15.00;13.57;;;;;;;5.99;100.00;102778.41;7743504;23;20496;-68
2024/03/07 02:16:44;;;;;;;26.13;15.27;;;;;;;6.01;100.00;102762.28;7733160;23;20236;-69
2024/03/07 02:20:08;;;;;;;15.43;13.73;;;;;;;5.99;100.00;102761.47;7740191;23;20285;-68
2024/03/07 02:23:30;;;;;;;15.27;13.67;;;;;;;5.99;100.00;102765.03;7743322;23;20211;-69
2024/03/07 02:26:52;;;;;;;24.53;14.83;;;;;;;6.01;100.00;102762.28;7737266;23;20210;-68
2024/03/07 02:30:14;;;;;;;20.53;14.23;;;;;;;6.01;100.00;102763.16;7735488;23;20207;-69
2024/03/07 02:33:35;;;;;;;18.13;14.17;;;;;;;6.00;100.00;102744.50;7736999;23;20522;-69
2024/03/07 02:36:56;;;;;;;16.47;13.00;;;;;;;6.01;100.00;102752.47;7734696;23;20211;-69
2024/03/07 02:40:19;;;;;;;14.27;12.67;;;;;;;5.99;100.00;102751.66;7733968;23;20294;-67
2024/03/07 02:43:40;;;;;;;15.13;13.53;;;;;;;5.92;100.00;102750.16;7736041;23;20215;-68
2024/03/07 02:47:02;;;;;;;17.17;15.03;;;;;;;5.90;100.00;102749.34;7736240;23;20565;-67
2024/03/07 02:50:23;;;;;;;16.57;12.83;;;;;;;5.90;100.00;102744.00;7737039;23;20573;-68
2024/03/07 02:53:44;;;;;;;13.97;12.47;;;;;;;5.93;100.00;102748.34;7738902;23;20561;-68
2024/03/07 02:57:06;;;;;;;17.70;12.23;;;;;;;5.96;100.00;102742.88;7738842;23;20207;-68
2024/03/07 03:00:29;;;;;;;14.40;12.57;;;;;;;5.97;100.00;102747.28;7739315;22;20723;-67
2024/03/07 03:03:50;;;;;;;19.67;13.73;;;;;;;5.98;100.00;102744.56;7739243;23;20215;-68
2024/03/07 03:07:11;;;;;;;22.60;13.07;;;;;;;5.95;100.00;102749.16;7757672;22;20210;-68
2024/03/07 03:10:33;;;;;;;13.73;11.33;;;;;;;5.82;100.00;102740.69;7767552;22;20210;-68
2024/03/07 03:13:55;;;;;;;13.33;11.67;;;;;;;5.79;100.00;102739.97;7779176;22;20210;-68
2024/03/07 03:17:16;;;;;;;15.83;11.80;;;;;;;5.86;100.00;102746.84;7767486;22;20202;-68
2024/03/07 03:20:38;;;;;;;13.30;10.90;;;;;;;5.70;100.00;102741.19;7769084;22;20270;-68
2024/03/07 03:23:59;;;;;;;13.23;11.90;;;;;;;5.81;100.00;102743.44;7778937;22;20210;-67
2024/03/07 03:27:20;;;;;;;13.20;10.60;;;;;;;5.90;100.00;102744.00;7773826;22;20214;-68
2024/03/07 03:30:43;;;;;;;12.03;8.90;;;;;;;5.90;100.00;102735.97;7773508;22;20210;-68
2024/03/07 03:34:03;;;;;;;14.63;10.47;;;;;;;5.81;100.00;102736.28;7778112;22;20218;-69
2024/03/07 03:37:24;;;;;;;14.87;10.87;;;;;;;5.81;100.00;102730.94;7769530;22;20727;-69
2024/03/07 03:40:46;;;;;;;13.57;10.77;;;;;;;5.74;100.00;102734.78;7771315;22;20214;-68
2024/03/07 03:44:07;;;;;;;14.30;9.97;;;;;;;5.74;100.00;102732.09;7774535;22;20210;-69
2024/03/07 03:47:29;;;;;;;13.17;10.67;;;;;;;5.69;100.00;102734.94;7753286;22;20210;-68
2024/03/07 03:50:50;;;;;;;16.20;11.40;;;;;;;5.66;100.00;102734.22;7759116;22;20211;-68
2024/03/07 03:54:11;;;;;;;10.97;9.87;;;;;;;5.64;100.00;102731.59;7776956;22;20211;-68
2024/03/07 03:57:33;;;;;;;16.93;10.27;;;;;;;5.67;100.00;102731.47;7774431;22;20202;-69
2024/03/07 04:00:54;;;;;;;17.70;11.13;;;;;;;5.66;100.00;102731.53;7772486;22;20218;-68
2024/03/07 04:04:16;;;;;;;16.00;11.63;;;;;;;5.56;100.00;102735.50;7777862;22;20549;-69
2024/03/07 04:07:38;;;;;;;12.87;9.83;;;;;;;5.52;100.00;102740.09;7768971;22;20215;-69
2024/03/07 04:10:58;;;;;;;15.20;11.60;;;;;;;5.47;100.00;102731.38;7762266;22;20553;-68
2024/03/07 04:14:19;;;;;;;14.07;10.87;;;;;;;5.38;100.00;102737.06;7780104;22;20211;-68
2024/03/07 04:17:41;;;;;;;11.03;10.00;;;;;;;5.37;100.00;102743.34;7760509;22;20211;-69
2024/03/07 04:21:03;;;;;;;15.63;10.37;;;;;;;5.34;100.00;102743.44;7772545;22;20285;-69
2024/03/07 04:24:24;;;;;;;10.00;9.00;;;;;;;5.23;100.00;102740.31;7780231;22;20207;-68
2024/03/07 04:27:45;;;;;;;13.37;11.53;;;;;;;5.24;100.00;102744.72;7772174;22;20215;-69
2024/03/07 04:31:06;;;;;;;16.03;13.53;;;;;;;5.25;100.00;102749.16;7775060;22;20214;-69
2024/03/07 04:34:30;;;;;;;14.87;12.10;;;;;;;5.17;100.00;102737.00;7780597;22;20222;-69
2024/03/07 04:37:53;;;;;;;13.20;10.57;;;;;;;5.22;100.00;102753.72;7774896;22;20224;-67
2024/03/07 04:41:15;;;;;;;13.67;11.97;;;;;;;5.00;100.00;102755.44;7697465;22;20639;-68
2024/03/07 04:44:38;;;;;;;12.30;10.87;;;;;;;5.11;100.00;102746.09;7781726;22;20514;-69
2024/03/07 04:47:59;;;;;;;17.53;10.90;;;;;;;5.18;100.00;102754.75;7766403;22;20842;-69
2024/03/07 04:51:20;;;;;;;9.67;8.77;;;;;;;5.14;100.00;102748.66;7737767;22;20317;-68
2024/03/07 04:54:42;;;;;;;13.47;12.03;;;;;;;5.06;100.00;102747.19;7779822;22;20215;-67
2024/03/07 04:58:03;;;;;;;11.40;10.30;;;;;;;5.02;100.00;102745.56;7772728;22;20214;-68
2024/03/07 05:01:24;;;;;;;11.40;10.00;;;;;;;5.02;100.00;102745.56;7769735;22;20210;-68
2024/03/07 05:04:46;;;;;;;13.07;9.90;;;;;;;4.90;100.00;102736.19;7778549;22;20211;-68
2024/03/07 05:08:07;;;;;;;13.40;10.97;;;;;;;5.01;100.00;102746.47;7773006;22;20226;-68
2024/03/07 05:11:30;;;;;;;11.30;10.17;;;;;;;5.01;100.00;102743.81;7775708;22;20210;-69
2024/03/07 05:14:51;;;;;;;11.33;10.07;;;;;;;4.84;100.00;102747.06;7781035;22;20222;-69
2024/03/07 05:18:12;;;;;;;10.33;9.23;;;;;;;4.77;100.00;102748.22;7773322;22;20300;-68
2024/03/07 05:21:40;;;;;;;13.10;11.27;;;;;;;4.62;100.00;102746.97;7774684;22;20220;-68
2024/03/07 05:25:01;;;;;;;14.20;10.30;;;;;;;4.68;100.00;102757.44;7780899;22;20565;-69
2024/03/07 05:28:23;;;;;;;13.53;12.03;;;;;;;4.68;100.00;102757.44;7781003;22;20464;-69
2024/03/07 05:31:46;;;;;;;15.87;12.03;;;;;;;4.76;100.00;102762.50;7769974;22;20580;-68
2024/03/07 05:35:09;;;;;;;12.97;11.37;;;;;;;4.68;100.00;102770.78;7774979;22;20552;-69
2024/03/07 05:38:30;;;;;;;12.17;10.97;;;;;;;4.65;100.00;102770.03;7770365;22;20211;-69
2024/03/07 05:41:51;;;;;;;11.43;9.07;;;;;;;4.68;100.00;102765.44;7767539;22;20218;-69
2024/03/07 05:45:14;;;;;;;10.90;9.77;;;;;;;4.64;100.00;102769.16;7771483;22;20568;-67
2024/03/07 05:48:36;;;;;;;9.60;8.83;;;;;;;4.51;100.00;102778.47;7774493;22;20210;-68
2024/03/07 05:51:57;;;;;;;10.57;9.47;;;;;;;4.41;100.00;102784.19;7769894;22;20214;-67
2024/03/07 05:55:19;;;;;;;8.53;7.70;;;;;;;4.34;100.00;102780.81;7770612;22;20214;-68
2024/03/07 05:58:39;;;;;;;11.77;9.53;;;;;;;4.41;100.00;102784.19;7781017;22;20214;-67
2024/03/07 06:02:02;;;;;;;11.20;10.10;;;;;;;4.41;100.00;102782.38;7760206;22;20297;-68
2024/03/07 06:05:24;;;;;;;9.03;8.13;;;;;;;4.40;100.00;102780.63;7766699;22;20814;-67
2024/03/07 06:08:45;;;;;;;11.93;9.43;;;;;;;4.48;100.00;102773.25;7780320;22;20627;-68
2024/03/07 06:12:16;;;;;;;14.33;8.40;;;;;;;4.46;100.00;102775.13;7747016;22;20215;-69
2024/03/07 06:15:40;;;;;;;12.90;8.70;;;;;;;4.49;100.00;102776.78;7625245;23;20212;-67
2024/03/07 06:19:02;;;;;;;10.93;9.63;;;;;;;4.47;100.00;102778.63;7627831;23;20292;-68
2024/03/07 06:22:23;;;;;;;12.87;10.90;;;;;;;4.45;100.00;102781.38;7623269;23;20213;-68
2024/03/07 06:25:51;;;;;;;10.93;9.40;;;;;;;4.50;100.00;102773.22;7613281;23;20608;-68
2024/03/07 06:29:12;;;;;;;9.67;8.37;;;;;;;4.44;100.00;102786.75;7629840;23;20245;-67
2024/03/07 06:32:33;;;;;;;9.00;8.13;;;;;;;4.41;100.00;102779.72;7619335;23;20429;-67
2024/03/07 06:35:55;;;;;;;12.80;8.70;;;;;;;4.56;100.00;102787.22;7620449;23;20756;-68
2024/03/07 06:39:16;;;;;;;10.70;9.60;;;;;;;4.59;100.00;102794.28;7627494;23;20576;-69
2024/03/07 06:42:38;;;;;;;8.90;8.03;;;;;;;4.49;100.00;102792.81;7622795;23;20217;-68
2024/03/07 06:45:59;;;;;;;12.73;9.00;;;;;;;4.49;100.00;102803.47;7616930;23;20213;-67
2024/03/07 06:49:20;;;;;;;10.70;8.37;;;;;;;4.40;100.00;102807.31;7615114;23;20272;-67
2024/03/07 06:52:44;;;;;;;10.67;9.20;;;;;;;4.47;100.00;102808.00;7624787;23;20213;-69
2024/03/07 06:56:06;;;;;;;10.60;9.53;;;;;;;4.60;100.00;102806.69;7625871;23;20255;-68
2024/03/07 06:59:27;;;;;;;11.17;10.07;;;;;;;4.63;100.00;102804.78;7631464;23;20529;-68
2024/03/07 07:02:49;;;;;;;9.37;8.57;;;;;;;4.60;100.00;102810.25;7580583;23;20216;-67
2024/03/07 07:06:10;;;;;;;12.47;9.77;;;;;;;4.55;100.00;102812.19;7615948;23;20243;-68
2024/03/07 07:09:32;;;;;;;9.30;8.40;;;;;;;4.51;100.00;102810.53;7630373;23;20256;-67
2024/03/07 07:12:54;;;;;;;12.17;10.10;;;;;;;4.42;100.00;102815.31;7623639;23;20225;-68
2024/03/07 07:16:18;;;;;;;9.93;8.93;;;;;;;4.51;100.00;102807.84;7621246;23;20217;-68
2024/03/07 07:19:39;;;;;;;12.33;10.10;;;;;;;4.55;100.00;102812.19;7630865;23;20288;-67
2024/03/07 07:23:02;;;;;;;11.53;10.13;;;;;;;4.54;100.00;102813.13;7622533;23;20276;-67
2024/03/07 07:26:25;;;;;;;13.53;9.47;;;;;;;4.65;100.00;102810.94;7622848;23;20501;-67
2024/03/07 07:29:46;;;;;;;11.97;9.27;;;;;;;4.67;100.00;102813.59;7632098;23;20809;-69
2024/03/07 07:33:07;;;;;;;10.20;7.13;;;;;;;4.66;100.00;102802.03;7625394;23;20440;-68
2024/03/07 07:36:29;;;;;;;9.17;8.27;;;;;;;4.53;100.00;102811.34;7623568;23;20216;-68
2024/03/07 07:39:51;;;;;;;11.27;8.00;;;;;;;4.57;100.00;102812.13;7630532;23;20221;-66
2024/03/07 07:43:13;;;;;;;9.63;8.70;;;;;;;4.58;100.00;102817.44;7629613;23;20221;-67
2024/03/07 07:46:34;;;;;;;10.73;8.90;;;;;;;4.64;100.00;102811.00;7618814;23;20217;-67
2024/03/07 07:49:55;;;;;;;10.73;9.13;;;;;;;4.66;100.00;102806.47;7630742;23;20209;-68
2024/03/07 07:53:16;;;;;;;9.63;8.10;;;;;;;4.71;100.00;102812.56;7629382;23;20296;-67
2024/03/07 07:56:37;;;;;;;8.33;7.67;;;;;;;4.38;100.00;102819.00;7609290;23;20209;-67
2024/03/07 07:59:59;;;;;;;10.20;9.10;;;;;;;4.37;100.00;102810.09;7634576;23;20212;-67
2024/03/07 08:03:22;;;;;;;10.13;8.53;;;;;;;4.21;100.00;102818.66;7599981;23;20229;-68
2024/03/07 08:06:43;;;;;;;10.13;8.90;;;;;;;4.09;100.00;102808.38;7627104;23;20209;-68
2024/03/07 08:10:05;;;;;;;10.17;9.07;;;;;;;4.28;100.00;102810.38;7633329;23;20213;-68
2024/03/07 08:13:26;;;;;;;9.90;9.00;;;;;;;4.54;100.00;102809.56;7633509;23;20209;-67
2024/03/07 08:16:51;;;;;;;10.10;9.00;;;;;;;4.86;100.00;102802.19;7621730;23;20209;-66
2024/03/07 08:20:13;;;;;;;9.83;8.50;;;;;;;4.69;100.00;102801.91;7624103;23;20579;-67
2024/03/07 08:23:34;;;;;;;13.60;9.30;;;;;;;4.64;100.00;102805.66;7632133;23;20221;-68
2024/03/07 08:26:56;;;;;;;9.63;8.63;;;;;;;5.00;100.00;102799.06;7626703;23;20213;-67
2024/03/07 08:30:17;;;;;;;10.43;8.97;;;;;;;4.67;100.00;102801.06;7618834;23;20297;-68
2024/03/07 08:33:40;;;;;;;8.67;7.50;;;;;;;4.90;100.00;102800.31;7630652;23;20288;-68
2024/03/07 08:37:00;;;;;;;8.77;7.80;;;;;;;5.06;100.00;102797.97;7624828;23;20213;-68
2024/03/07 08:40:23;;;;;;;9.87;8.47;;;;;;;5.27;100.00;102799.88;7628350;23;20205;-67
2024/03/07 08:43:43;;;;;;;7.87;7.00;;;;;;;5.15;100.00;102798.53;7632313;23;20231;-67
2024/03/07 08:47:04;;;;;;;10.63;7.97;;;;;;;5.20;100.00;102796.56;7622374;23;20217;-68
2024/03/07 08:50:28;;;;;;;9.60;7.50;;;;;;;5.13;100.00;102799.50;7626509;23;20213;-67
2024/03/07 08:53:50;;;;;;;10.90;7.17;;;;;;;5.02;100.00;102797.22;7631870;23;20295;-68
2024/03/07 08:57:11;;;;;;;8.70;7.90;;;;;;;5.03;100.00;102790.94;7626817;23;20279;-68
2024/03/07 09:00:32;;;;;;;7.70;7.00;;;;;;;5.27;100.00;102800.78;7614696;23;20221;-67
2024/03/07 09:03:53;;;;;;;9.70;8.80;;;;;;;5.39;100.00;102799.44;7615126;23;20662;-67
2024/03/07 09:07:16;;;;;;;8.00;7.07;;;;;;;5.47;100.00;102808.94;7626545;23;20212;-68
2024/03/07 09:10:37;;;;;;;8.73;7.83;;;;;;;5.34;100.00;102804.09;7625427;23;20213;-67
2024/03/07 09:13:58;;;;;;;10.33;7.30;;;;;;;5.50;100.00;102794.56;7632855;23;20259;-68
2024/03/07 09:17:19;;;;;;;10.10;8.33;;;;;;;5.40;100.00;102799.38;7624518;23;20548;-67
2024/03/07 09:20:40;;;;;;;11.93;8.87;;;;;;;5.16;100.00;102802.06;7609732;23;20217;-68
2024/03/07 09:24:02;;;;;;;13.67;9.50;;;;;;;4.76;100.00;102803.44;7630710;23;20209;-68
2024/03/07 09:27:23;;;;;;;11.67;10.47;;;;;;;5.04;100.00;102799.81;7624690;23;20532;-68
2024/03/07 09:30:44;;;;;;;15.27;10.87;;;;;;;4.98;100.00;102800.03;7620840;23;20213;-68
2024/03/07 09:34:05;;;;;;;15.50;9.33;;;;;;;4.80;100.00;102796.19;7632459;23;20213;-68
2024/03/07 09:37:27;;;;;;;14.10;9.77;;;;;;;4.84;100.00;102797.84;7623838;23;20213;-68
2024/03/07 09:40:49;;;;;;;11.20;10.07;;;;;;;4.93;100.00;102791.31;7623794;23;20722;-66
2024/03/07 09:44:11;;;;;;;11.17;9.83;;;;;;;4.76;100.00;102786.53;7633403;23;20252;-68
2024/03/07 09:47:32;;;;;;;13.43;10.53;;;;;;;5.02;100.00;102796.34;7624637;23;20212;-67
2024/03/07 09:50:55;;;;;;;16.27;11.73;;;;;;;5.02;100.00;102793.66;7625170;23;20217;-68
2024/03/07 09:54:18;;;;;;;12.73;10.57;;;;;;;4.98;100.00;102792.91;7630607;23;20217;-68
2024/03/07 09:57:42;;;;;;;12.50;11.03;;;;;;;5.14;100.00;102795.91;7627613;23;20217;-67
2024/03/07 10:01:05;;;;;;;11.70;10.57;;;;;;;4.83;100.00;102796.09;7625221;23;20552;-68
2024/03/07 10:04:30;;;;;;;12.03;10.20;;;;;;;5.00;100.00;102795.53;7628793;23;20209;-68
2024/03/07 10:07:51;;;;;;;12.93;10.83;;;;;;;5.27;100.00;102794.53;7625128;23;20504;-69
2024/03/07 10:11:14;;;;;;;16.27;11.43;;;;;;;5.31;100.00;102789.03;7626413;23;20217;-67
2024/03/07 10:14:38;;;;;;;16.57;11.93;;;;;;;5.05;100.00;102789.06;7633441;23;20209;-67
2024/03/07 10:18:00;;;;;;;12.07;10.53;;;;;;;5.06;100.00;102784.59;7621633;23;20220;-68
2024/03/07 10:21:22;;;;;;;12.70;11.07;;;;;;;5.12;100.00;102787.06;7626233;23;20281;-67
2024/03/07 10:24:50;;;;;;;15.03;11.73;;;;;;;5.35;100.00;102782.66;7629843;23;20255;-67
2024/03/07 10:28:11;;;;;;;11.53;10.33;;;;;;;5.51;100.00;102778.47;7584488;23;20216;-69
2024/03/07 10:31:34;;;;;;;14.23;11.83;;;;;;;5.70;100.00;102775.97;7619415;23;20221;-67
2024/03/07 10:34:55;;;;;;;11.47;9.90;;;;;;;5.76;100.00;102773.03;7629121;23;20213;-68
2024/03/07 10:38:18;;;;;;;13.70;12.07;;;;;;;5.91;100.00;102767.16;7630256;23;20209;-67
2024/03/07 10:41:46;;;;;;;13.73;11.07;;;;;;;6.43;100.00;102763.22;7626348;23;20217;-68
2024/03/07 10:45:11;;;;;;;12.67;9.57;;;;;;;6.60;100.00;102767.88;7622375;23;20208;-67
2024/03/07 10:48:39;;;;;;;13.53;11.27;;;;;;;6.49;100.00;102767.50;7614764;23;20214;-68
2024/03/07 10:52:04;;;;;;;13.17;11.53;;;;;;;6.76;100.00;102763.66;7624592;23;20243;-67
2024/03/07 10:55:36;;;;;;;10.67;9.40;;;;;;;6.77;100.00;102762.69;7623491;23;20216;-68
2024/03/07 10:59:04;;;;;;;11.63;10.43;;;;;;;6.84;100.00;102756.16;7628292;23;20213;-68
2024/03/07 11:02:33;;;;;;;16.13;9.37;;;;;;;6.94;100.00;102760.16;7622810;23;20220;-68
2024/03/07 11:05:56;;;;;;;22.67;18.07;;;;;;;7.03;100.00;102759.78;7624159;23;20292;-68
2024/03/07 11:09:22;;;;;;;14.60;11.90;;;;;;;6.96;100.00;102750.25;7630145;23;20217;-67
2024/03/07 11:12:45;;;;;;;13.10;11.23;;;;;;;7.10;100.00;102747.81;7620456;23;20213;-68
2024/03/07 11:16:07;;;;;;;10.27;9.13;;;;;;;7.43;100.00;102748.09;7622195;23;20221;-68
2024/03/07 11:19:31;;;;;;;16.43;11.70;;;;;;;7.23;100.00;102747.22;7626185;23;20241;-68
2024/03/07 11:22:55;;;;;;;12.60;11.33;;;;;;;7.15;100.00;102743.13;7621993;23;20607;-68
2024/03/07 11:26:15;;;;;;;11.20;10.10;;;;;;;6.84;100.00;102740.06;7623953;23;20217;-67
2024/03/07 11:29:44;;;;;;;13.27;10.67;;;;;;;6.99;100.00;102731.31;7632670;23;20221;-68
2024/03/07 11:33:07;;;;;;;12.27;10.97;;;;;;;6.89;100.00;102741.59;7624109;23;20217;-68
2024/03/07 11:36:44;;;;;;;15.00;10.03;;;;;;;6.85;100.00;102736.44;7626618;23;20580;-67
2024/03/07 11:40:17;;;;;;;12.83;10.50;;;;;;;6.67;100.00;102727.38;7630725;23;20299;-67
2024/03/07 11:43:39;;;;;;;15.37;11.60;;;;;;;6.80;100.00;102731.25;7632571;23;20520;-67
2024/03/07 11:47:08;;;;;;;12.67;9.67;;;;;;;7.24;100.00;102721.25;7624554;23;20299;-68
2024/03/07 11:50:29;;;;;;;13.20;11.83;;;;;;;7.20;100.00;102723.19;7625427;23;20216;-68
2024/03/07 11:53:51;;;;;;;13.23;11.43;;;;;;;7.25;100.00;102713.16;7633080;23;20221;-68
2024/03/07 11:57:13;;;;;;;14.17;11.37;;;;;;;7.24;100.00;102716.75;7628992;23;20209;-67
2024/03/07 12:00:35;;;;;;;11.33;10.13;;;;;;;7.21;100.00;102711.56;7626095;23;20292;-68
2024/03/07 12:03:57;;;;;;;15.97;9.97;;;;;;;7.21;100.00;102713.34;7629283;23;20503;-67
2024/03/07 12:07:19;;;;;;;15.43;11.67;;;;;;;7.37;100.00;102708.13;7622041;23;20221;-68
2024/03/07 12:10:43;;;;;;;17.57;11.70;;;;;;;7.23;100.00;102700.75;7627990;23;20331;-67
2024/03/07 12:14:06;;;;;;;12.77;10.83;;;;;;;7.16;100.00;102705.50;7632254;23;20512;-67
2024/03/07 12:17:29;;;;;;;11.80;10.57;;;;;;;7.18;100.00;102695.59;7620153;23;20209;-68
2024/03/07 12:20:51;;;;;;;15.77;11.93;;;;;;;6.97;100.00;102695.66;7626360;23;20209;-68
2024/03/07 12:24:13;;;;;;;13.77;12.10;;;;;;;6.82;100.00;102688.34;7630958;23;20213;-68
2024/03/07 12:27:34;;;;;;;13.70;10.63;;;;;;;7.05;100.00;102677.47;7627545;23;20217;-68
2024/03/07 12:30:57;;;;;;;11.80;10.60;;;;;;;7.18;100.00;102683.97;7626679;23;20221;-67
2024/03/07 12:34:18;;;;;;;17.27;12.83;;;;;;;7.28;100.00;102669.19;7573134;23;20252;-67
2024/03/07 12:37:41;;;;;;;16.60;12.03;;;;;;;7.32;100.00;102673.50;7625267;23;20213;-69
2024/03/07 12:41:06;;;;;;;13.23;11.40;;;;;;;7.32;100.00;102667.25;7625325;23;20221;-67
2024/03/07 12:44:28;;;;;;;18.27;13.40;;;;;;;7.45;100.00;102666.59;7633900;23;20217;-67
2024/03/07 12:47:54;;;;;;;16.53;12.40;;;;;;;7.57;100.00;102662.47;7626734;23;20213;-68
2024/03/07 12:51:16;;;;;;;15.53;12.93;;;;;;;7.60;100.00;102665.88;7627838;23;20463;-67
2024/03/07 12:54:40;;;;;;;14.37;12.90;;;;;;;7.76;100.00;102657.97;7609523;23;20209;-68
2024/03/07 12:58:01;;;;;;;14.17;12.67;;;;;;;7.76;100.00;102652.63;7627482;23;20221;-67
2024/03/07 13:01:22;;;;;;;14.90;12.87;;;;;;;7.91;100.00;102658.09;7625567;23;20209;-67
2024/03/07 13:04:45;;;;;;;15.57;12.17;;;;;;;7.84;100.00;102653.09;7630744;23;20225;-68
2024/03/07 13:08:06;;;;;;;14.07;11.60;;;;;;;7.77;100.00;102644.47;7628251;23;20459;-68
2024/03/07 13:11:29;;;;;;;16.70;12.83;;;;;;;7.42;100.00;102645.31;7627318;23;20564;-68
2024/03/07 13:14:50;;;;;;;16.40;13.57;;;;;;;7.83;100.00;102632.56;7628658;23;20224;-67
2024/03/07 13:18:13;;;;;;;14.53;13.03;;;;;;;7.99;100.00;102637.09;7614527;23;20213;-67
2024/03/07 13:21:36;;;;;;;17.60;14.07;;;;;;;7.85;100.00;102636.91;7626428;23;20453;-67
2024/03/07 13:24:56;;;;;;;14.00;12.60;;;;;;;7.82;100.00;102636.19;7631647;23;20217;-68
2024/03/07 13:28:23;;;;;;;18.00;13.47;;;;;;;7.77;100.00;102633.75;7632560;23;20209;-68
2024/03/07 13:31:45;;;;;;;16.77;13.30;;;;;;;7.93;100.00;102633.84;7612851;23;20209;-68
2024/03/07 13:35:11;;;;;;;17.83;13.40;;;;;;;7.66;100.00;102625.31;7627260;23;20217;-69
2024/03/07 13:38:33;;;;;;;15.83;13.53;;;;;;;7.61;100.00;102622.03;7632027;23;20209;-68
2024/03/07 13:41:55;;;;;;;17.80;13.47;;;;;;;8.09;100.00;102619.56;7623135;23;20459;-68
2024/03/07 13:45:15;;;;;;;13.67;12.37;;;;;;;8.50;100.00;102617.47;7630978;23;20217;-68
2024/03/07 13:48:37;;;;;;;13.63;11.37;;;;;;;8.41;100.00;102617.94;7631014;23;20461;-68
2024/03/07 13:52:10;;;;;;;15.93;13.70;;;;;;;8.47;100.00;102614.09;7628197;23;20217;-68
2024/03/07 13:55:40;;;;;;;14.77;12.57;;;;;;;8.26;100.00;102607.13;7625456;23;20212;-67
2024/03/07 13:59:27;;;;;;;16.03;13.33;;;;;;;8.19;100.00;102603.88;7632186;23;20216;-68
2024/03/07 14:03:13;;;;;;;14.73;12.10;;;;;;;8.39;100.00;102600.16;7621496;23;20607;-68
2024/03/07 14:06:42;;;;;;;19.10;13.07;;;;;;;8.34;100.00;102599.56;7621099;23;20592;-67
2024/03/07 14:10:36;;;;;;;18.07;14.40;;;;;;;8.75;100.00;102590.16;7631751;23;20208;-68
2024/03/07 14:14:17;;;;;;;14.33;12.90;;;;;;;8.77;100.00;102585.56;7630310;23;20213;-68
2024/03/07 14:18:14;;;;;;;17.97;12.37;;;;;;;8.52;100.00;102590.50;7624157;23;20288;-67
2024/03/07 14:22:00;;;;;;;14.83;12.23;;;;;;;8.48;100.00;102586.25;7628376;23;20213;-67
2024/03/07 14:25:43;;;;;;;32.67;13.30;;;;;;;10.79;100.00;102579.03;7621585;23;20224;-68
2024/03/07 14:29:20;;;;;;;15.50;13.60;;;;;;;13.79;100.00;102567.19;7631640;23;20221;-68
2024/03/07 14:32:43;;;;;;;14.73;12.50;;;;;;;15.96;90.63;102553.19;7627086;23;20205;-68
2024/03/07 14:36:11;;;;;;;15.53;13.63;;;;;;;16.16;77.65;102556.06;7626867;23;20292;-68
2024/03/07 14:39:35;;;;;;;14.33;12.93;;;;;;;14.41;77.21;102558.69;7631751;23;20209;-68
2024/03/07 14:42:59;;;;;;;13.17;11.13;;;;;;;11.95;84.30;102557.88;7625726;23;20217;-68
2024/03/07 14:46:22;;;;;;;16.83;12.27;;;;;;;10.61;94.33;102553.22;7625650;23;20209;-68
2024/03/07 14:49:42;;;;;;;15.30;12.70;;;;;;;10.37;100.00;102546.63;7631457;23;20217;-68
2024/03/07 14:53:04;;;;;;;13.63;10.70;;;;;;;11.99;99.93;102532.38;7628316;23;20296;-68
2024/03/07 14:56:26;;;;;;;12.73;11.10;;;;;;;14.21;86.42;102525.94;7628309;23;20209;-68
2024/03/07 14:59:47;;;;;;;15.53;11.20;;;;;;;15.03;76.11;102531.13;7630653;23;20213;-68
2024/03/07 15:03:14;;;;;;;13.47;11.97;;;;;;;15.02;70.88;102523.94;7630228;23;20213;-68
2024/03/07 15:06:35;;;;;;;14.63;12.93;;;;;;;14.72;70.38;102515.56;7625803;23;20217;-69
2024/03/07 15:09:58;;;;;;;17.20;11.57;;;;;;;14.16;70.03;102515.44;7630602;23;20213;-69
2024/03/07 15:13:19;;;;;;;14.03;12.03;;;;;;;14.04;70.90;102510.97;7579600;23;20214;-68
2024/03/07 15:16:40;;;;;;;17.60;11.47;;;;;;;13.79;72.22;102508.41;7607592;23;20209;-68
2024/03/07 15:20:06;;;;;;;12.73;10.47;;;;;;;13.61;73.07;102507.97;7592715;23;20304;-68
2024/03/07 15:23:27;;;;;;;17.00;10.13;;;;;;;12.94;74.29;102504.91;7591902;23;20214;-68
2024/03/07 15:26:49;;;;;;;13.13;10.10;;;;;;;12.61;76.74;102505.50;7586612;23;20222;-67
2024/03/07 15:30:13;;;;;;;12.40;11.10;;;;;;;12.26;77.92;102496.31;7747862;22;20573;-68